createdAt,value
2019-01-23T00:02:38.191Z,11.76
2019-01-23T00:06:08.292Z,13.27
2019-01-23T00:09:38.381Z,11.93
2019-01-23T00:13:08.442Z,12.74
2019-01-23T00:16:38.552Z,12.94
2019-01-23T00:20:08.802Z,14.97
2019-01-23T00:23:38.873Z,12.4
2019-01-23T00:27:08.864Z,12.65
2019-01-23T00:30:38.894Z,13.35
2019-01-23T00:34:09.054Z,11.05
2019-01-23T00:37:39.105Z,11.81
2019-01-23T00:41:09.200Z,11.91
2019-01-23T00:44:39.265Z,11.79
2019-01-23T00:48:09.306Z,13.11
2019-01-23T00:51:39.486Z,14.02
2019-01-23T00:55:11.867Z,13.15
2019-01-23T00:58:41.837Z,12.72
2019-01-23T01:02:12.080Z,9.36
2019-01-23T01:05:42.158Z,12.93
2019-01-23T01:09:12.233Z,11.95
2019-01-23T01:12:42.350Z,11.24
2019-01-23T01:16:12.489Z,14.02
2019-01-23T01:19:42.530Z,12.62
2019-01-23T01:23:12.699Z,13.66
2019-01-23T01:26:42.731Z,13.75
2019-01-23T01:30:15.556Z,13.34
2019-01-23T01:33:45.684Z,14.49
2019-01-23T01:37:15.722Z,13.14
2019-01-23T01:40:45.892Z,12.97
2019-01-23T01:44:16.005Z,12.81
2019-01-23T01:47:46.023Z,13.2
2019-01-23T01:51:16.103Z,14.74
2019-01-23T01:54:46.254Z,14.54
2019-01-23T01:58:17.274Z,14.4
2019-01-23T02:00:18.294Z,16.76
2019-01-23T02:03:48.335Z,15.89
2019-01-23T02:07:18.365Z,15.06
2019-01-23T02:10:48.382Z,15.22
2019-01-23T02:14:18.626Z,14.56
2019-01-23T02:17:48.946Z,14.31
2019-01-23T02:21:18.976Z,17.7
2019-01-23T02:24:49.147Z,16.74
2019-01-23T02:28:19.277Z,16.07
2019-01-23T02:31:49.398Z,15.89
2019-01-23T02:35:19.630Z,16.73
2019-01-23T02:38:49.738Z,17.29
2019-01-23T02:42:19.829Z,15.68
2019-01-23T02:45:49.919Z,14.4
2019-01-23T02:49:20.016Z,15.11
2019-01-23T02:52:50.061Z,14.75
2019-01-23T02:56:20.120Z,13.98
2019-01-23T02:59:51.031Z,15.34
2019-01-23T03:03:21.116Z,14.9
2019-01-23T03:06:51.111Z,15.75
2019-01-23T03:10:21.198Z,17.52
2019-01-23T03:13:51.263Z,19.2
2019-01-23T03:17:21.353Z,21.45
2019-01-23T03:20:51.447Z,19.25
2019-01-23T03:24:21.543Z,17.2
2019-01-23T03:27:51.725Z,20.07
2019-01-23T03:31:21.939Z,20.76
2019-01-23T03:34:52.079Z,21.38
2019-01-23T03:38:22.218Z,21.31
2019-01-23T03:41:52.285Z,20.34
2019-01-23T03:45:22.307Z,20.05
2019-01-23T03:48:52.395Z,20.45
2019-01-23T03:52:22.449Z,22.98
2019-01-23T03:55:52.587Z,21.18
2019-01-23T03:59:22.711Z,22.68
2019-01-23T04:00:18.997Z,24.95
2019-01-23T04:03:49.023Z,22.11
2019-01-23T04:07:19.119Z,21.25
2019-01-23T04:10:49.338Z,22.84
2019-01-23T04:14:19.479Z,18.12
2019-01-23T04:17:49.620Z,21.45
2019-01-23T04:21:19.670Z,22.26
2019-01-23T04:24:49.785Z,24.96
2019-01-23T04:28:19.761Z,25
2019-01-23T04:31:49.872Z,28.4
2019-01-23T04:35:19.870Z,24.15
2019-01-23T04:38:50.022Z,26.4
2019-01-23T04:42:20.003Z,26.94
2019-01-23T04:45:50.115Z,22.36
2019-01-23T04:49:20.185Z,24.24
2019-01-23T04:53:31.231Z,26.01
2019-01-23T04:57:01.214Z,25.32
2019-01-23T05:00:32.445Z,23.09
2019-01-23T05:04:03.444Z,22.85
2019-01-23T05:07:33.616Z,30.76
2019-01-23T05:11:03.646Z,35.11
2019-01-23T05:14:33.826Z,30.62
2019-01-23T05:18:03.928Z,25.46
2019-01-23T05:21:34.017Z,29.19
2019-01-23T05:25:04.698Z,25.79
2019-01-23T05:28:34.818Z,29.95
2019-01-23T05:32:05.021Z,24.31
2019-01-23T05:35:35.129Z,25.51
2019-01-23T05:39:06.941Z,23.94
2019-01-23T05:42:36.976Z,25.04
2019-01-23T05:46:07.104Z,22.95
2019-01-23T05:49:37.133Z,22.66
2019-01-23T05:53:07.111Z,24.21
2019-01-23T05:56:37.248Z,24.21
2019-01-23T06:00:16.442Z,30.39
2019-01-23T06:03:46.695Z,23.35
2019-01-23T06:07:16.833Z,24.09
2019-01-23T06:10:46.983Z,22.01
2019-01-23T06:14:17.004Z,20.06
2019-01-23T06:17:47.065Z,20.52
2019-01-23T06:21:17.125Z,20.21
2019-01-23T06:24:47.225Z,14.46
2019-01-23T06:28:17.314Z,21.09
2019-01-23T06:31:47.419Z,20.23
2019-01-23T06:35:17.632Z,20.97
2019-01-23T06:38:47.798Z,17.62
2019-01-23T06:42:17.777Z,14.32
2019-01-23T06:45:47.918Z,14.16
2019-01-23T06:49:18.107Z,11.19
2019-01-23T06:52:48.340Z,15.87
2019-01-23T06:56:18.339Z,13.7
2019-01-23T06:59:48.430Z,11.82
2019-01-23T07:03:18.496Z,12.43
2019-01-23T07:06:49.660Z,14.05
2019-01-23T07:10:22.444Z,15.38
2019-01-23T07:13:52.531Z,18.76
2019-01-23T07:17:22.582Z,21.74
2019-01-23T07:20:52.672Z,16.33
2019-01-23T07:24:22.713Z,16.4
2019-01-23T07:27:52.773Z,15.19
2019-01-23T07:31:22.884Z,17.25
2019-01-23T07:34:52.944Z,15.11
2019-01-23T07:38:22.915Z,16.73
2019-01-23T07:41:53.105Z,10.52
2019-01-23T07:45:23.434Z,16.89
2019-01-23T07:48:53.552Z,16.12
2019-01-23T07:52:23.536Z,16.54
2019-01-23T07:55:53.547Z,13.5
2019-01-23T07:59:23.570Z,17.29
2019-01-23T08:00:18.271Z,19.52
2019-01-23T08:03:48.483Z,17.55
2019-01-23T08:07:19.539Z,18.1
2019-01-23T08:10:49.499Z,19.77
2019-01-23T08:14:19.470Z,18.29
2019-01-23T08:17:49.650Z,10.79
2019-01-23T08:21:19.732Z,17.6
2019-01-23T08:24:49.871Z,18.06
2019-01-23T08:28:19.891Z,17.05
2019-01-23T08:31:49.953Z,16.12
2019-01-23T08:35:20.376Z,15.11
2019-01-23T08:38:50.526Z,6.36
2019-01-23T08:42:20.574Z,18.21
2019-01-23T08:45:50.655Z,18.58
2019-01-23T08:49:20.651Z,6.65
2019-01-23T08:52:50.825Z,17.86
2019-01-23T08:56:20.896Z,20.21
2019-01-23T08:59:51.126Z,18.6
2019-01-23T09:03:21.170Z,7.39
2019-01-23T09:06:51.266Z,18.99
2019-01-23T09:10:22.428Z,17.21
2019-01-23T09:13:52.538Z,19.75
2019-01-23T09:17:22.618Z,20.91
2019-01-23T09:20:52.631Z,18.38
2019-01-23T09:24:22.750Z,19.95
2019-01-23T09:27:52.949Z,21.38
2019-01-23T09:31:50.152Z,6.6
2019-01-23T09:35:30.183Z,19.41
2019-01-23T09:39:16.170Z,18.95
2019-01-23T09:47:40.454Z,18.77
2019-01-23T09:52:32.899Z,19.95
2019-01-23T09:56:03.353Z,19.04
2019-01-23T09:59:33.417Z,20.66
2019-01-23T10:00:21.086Z,21.36
2019-01-23T10:03:51.157Z,16.91
2019-01-23T10:07:21.137Z,12.15
2019-01-23T10:10:52.178Z,13.23
2019-01-23T10:14:22.368Z,20.84
2019-01-23T10:17:52.489Z,20.07
2019-01-23T10:21:22.746Z,17.3
2019-01-23T10:24:52.930Z,17.71
2019-01-23T10:28:22.921Z,17.41
2019-01-23T10:31:53.041Z,17.5
2019-01-23T10:35:23.137Z,11.31
2019-01-23T10:38:53.253Z,17.54
2019-01-23T10:42:23.423Z,15.53
2019-01-23T10:45:53.464Z,15.26
2019-01-23T10:49:23.446Z,30.23
2019-01-23T10:52:53.638Z,13.44
2019-01-23T10:56:23.746Z,16.93
2019-01-23T10:59:53.827Z,15.66
2019-01-23T11:03:23.858Z,15.23
2019-01-23T11:06:53.918Z,15.91
2019-01-23T11:10:24.159Z,17.64
2019-01-23T11:13:55.150Z,17.15
2019-01-23T11:17:25.279Z,19.88
2019-01-23T11:20:55.441Z,23.49
2019-01-23T11:24:25.461Z,26.41
2019-01-23T11:27:55.592Z,31.89
2019-01-23T11:31:25.733Z,25.76
2019-01-23T11:34:55.838Z,28.04
2019-01-23T11:38:25.885Z,29.09
2019-01-23T11:41:55.967Z,42.15
2019-01-23T11:45:26.446Z,34.24
2019-01-23T11:48:56.542Z,29.48
2019-01-23T11:52:26.593Z,29.4
2019-01-23T11:55:56.708Z,30.85
2019-01-23T11:59:26.808Z,24.25
2019-01-23T12:00:18.599Z,28.59
2019-01-23T12:03:48.760Z,24.05
2019-01-23T12:07:18.750Z,27.64
2019-01-23T12:10:48.886Z,25
2019-01-23T12:14:19.042Z,30.57
2019-01-23T12:17:49.233Z,30.57
2019-01-23T12:21:19.273Z,35.83
2019-01-23T12:24:49.374Z,25.36
2019-01-23T12:28:19.384Z,32.38
2019-01-23T12:31:49.446Z,29.95
2019-01-23T12:35:19.509Z,22.38
2019-01-23T12:38:49.637Z,19.24
2019-01-23T12:42:19.668Z,26.68
2019-01-23T12:45:49.818Z,24.94
2019-01-23T12:49:19.979Z,26.73
2019-01-23T12:52:50.120Z,30.35
2019-01-23T12:56:20.080Z,43.04
2019-01-23T12:59:50.102Z,34.25
2019-01-23T13:03:20.192Z,30.59
2019-01-23T13:06:50.224Z,25.38
2019-01-23T13:10:20.578Z,32.81
2019-01-23T13:13:50.704Z,29.62
2019-01-23T13:17:21.802Z,23.77
2019-01-23T13:20:51.958Z,22.61
2019-01-23T13:24:21.966Z,24
2019-01-23T13:27:52.556Z,29.68
2019-01-23T13:31:22.619Z,42.49
2019-01-23T13:34:52.719Z,41.59
2019-01-23T13:38:22.689Z,38.15
2019-01-23T13:41:52.730Z,37.3
2019-01-23T13:45:22.790Z,34.48
2019-01-23T13:48:52.941Z,49.94
2019-01-23T13:52:23.001Z,50.4
2019-01-23T13:55:52.952Z,43.54
2019-01-23T13:59:22.983Z,55.64
2019-01-23T14:00:19.303Z,57.61
2019-01-23T14:04:38.356Z,35.86
2019-01-23T14:08:08.964Z,37.29
2019-01-23T14:11:39.075Z,54.66
2019-01-23T14:15:12.636Z,38.5
2019-01-23T14:18:43.746Z,38.4
2019-01-23T14:22:13.967Z,38.44
2019-01-23T14:25:44.138Z,40.25
2019-01-23T14:29:14.228Z,31.19
2019-01-23T14:32:44.349Z,27.89
2019-01-23T14:36:14.430Z,21.26
2019-01-23T14:39:44.530Z,18.11
2019-01-23T14:43:15.182Z,20.75
2019-01-23T14:46:45.453Z,21.01
2019-01-23T14:50:15.685Z,22.77
2019-01-23T14:53:45.794Z,25.38
2019-01-23T14:57:15.903Z,20.04
2019-01-23T15:00:46.064Z,22.14
2019-01-23T15:04:16.105Z,23.18
2019-01-23T15:07:46.326Z,23.67
2019-01-23T15:11:16.449Z,18.74
2019-01-23T15:14:46.647Z,19.44
2019-01-23T15:18:16.746Z,17.27
2019-01-23T15:21:46.988Z,13.5
2019-01-23T15:25:17.221Z,15.45
2019-01-23T15:28:47.380Z,14.45
2019-01-23T15:32:17.621Z,13.57
2019-01-23T15:35:47.880Z,13.64
2019-01-23T15:39:17.961Z,15.84
2019-01-23T15:42:48.162Z,14.8
2019-01-23T15:46:18.193Z,13.94
2019-01-23T15:49:48.327Z,11.05
2019-01-23T15:53:20.241Z,9.65
2019-01-23T15:56:50.429Z,11.74
2019-01-23T16:00:18.778Z,13.24
2019-01-23T16:03:48.800Z,11.85
2019-01-23T16:07:18.868Z,8.79
2019-01-23T16:10:48.950Z,8.51
2019-01-23T16:14:19.062Z,8.49
2019-01-23T16:17:49.150Z,15.77
2019-01-23T16:21:19.290Z,9.19
2019-01-23T16:24:50.250Z,53.59
2019-01-23T16:28:20.221Z,41.1
2019-01-23T16:31:50.272Z,42.88
2019-01-23T16:35:20.548Z,35.23
2019-01-23T16:38:50.550Z,27.01
2019-01-23T16:42:20.659Z,34.76
2019-01-23T16:45:51.139Z,19.02
2019-01-23T16:49:21.169Z,15.81
2019-01-23T16:52:51.382Z,29.98
2019-01-23T16:56:21.443Z,34.85
2019-01-23T16:59:51.586Z,33.09
2019-01-23T17:03:21.758Z,25.23
2019-01-23T17:06:51.810Z,22.49
2019-01-23T17:10:22.583Z,12.96
2019-01-23T17:13:52.692Z,22.1
2019-01-23T17:17:22.789Z,19.06
2019-01-23T17:20:52.871Z,12.64
2019-01-23T17:24:23.032Z,10.8
2019-01-23T17:27:53.965Z,11.09
2019-01-23T17:31:24.000Z,15.18
2019-01-23T17:34:54.032Z,30.24
2019-01-23T17:38:24.082Z,40.33
2019-01-23T17:41:54.264Z,30.49
2019-01-23T17:45:26.716Z,29.31
2019-01-23T17:48:56.910Z,22.14
2019-01-23T17:52:27.032Z,29.71
2019-01-23T17:55:57.237Z,15.79
2019-01-23T17:59:27.267Z,18.6
2019-01-23T18:00:19.261Z,26.43
2019-01-23T18:03:50.560Z,19.21
2019-01-23T18:07:21.122Z,6.2
2019-01-23T18:10:51.195Z,9.25
2019-01-23T18:14:21.267Z,13.12
2019-01-23T18:17:51.419Z,9.72
2019-01-23T18:21:21.441Z,11.05
2019-01-23T18:24:52.074Z,9.69
2019-01-23T18:28:23.117Z,12.86
2019-01-23T18:31:57.699Z,9.66
2019-01-23T18:35:33.701Z,9
2019-01-23T18:42:13.212Z,6.25
2019-01-23T18:48:18.090Z,13.4
2019-01-23T18:52:11.705Z,8.5
2019-01-23T18:55:41.822Z,8.28
2019-01-23T18:59:11.867Z,3.78
2019-01-23T19:02:41.909Z,5.86
2019-01-23T19:06:12.012Z,7.31
2019-01-23T19:09:42.194Z,4.45
2019-01-23T19:13:12.397Z,3.49
2019-01-23T19:16:43.060Z,6.15
2019-01-23T19:20:15.512Z,5.9
2019-01-23T19:23:45.556Z,5.38
2019-01-23T19:27:15.767Z,5.17
2019-01-23T19:30:46.929Z,17.49
2019-01-23T19:34:16.861Z,12.79
2019-01-23T19:37:46.954Z,14
2019-01-23T19:41:20.403Z,19.48
2019-01-23T19:44:51.019Z,8.73
2019-01-23T19:48:21.094Z,7.96
2019-01-23T19:51:51.134Z,5.67
2019-01-23T19:55:21.476Z,7.33
2019-01-23T19:58:51.508Z,6.49
2019-01-23T20:00:20.129Z,8.44
2019-01-23T20:03:50.232Z,7.44
2019-01-23T20:07:20.274Z,5.59
2019-01-23T20:10:50.276Z,11.55
2019-01-23T20:14:20.269Z,14.11
2019-01-23T20:17:52.962Z,18.09
2019-01-23T20:21:23.015Z,16.7
2019-01-23T20:24:53.166Z,18.32
2019-01-23T20:28:23.569Z,8.39
2019-01-23T20:31:54.610Z,10.07
2019-01-23T20:35:24.766Z,7.05
2019-01-23T20:38:54.845Z,8.88
2019-01-23T20:42:24.938Z,10.74
2019-01-23T20:45:55.041Z,9.5
2019-01-23T20:49:25.163Z,9.05
2019-01-23T20:52:55.246Z,12.51
2019-01-23T20:56:25.432Z,13.71
2019-01-23T20:59:55.510Z,10.81
2019-01-23T21:03:25.692Z,12.71
2019-01-23T21:06:55.771Z,11.58
2019-01-23T21:10:26.138Z,11.3
2019-01-23T21:13:56.180Z,10.1
2019-01-23T21:17:26.247Z,11.4
2019-01-23T21:20:56.364Z,13.04
2019-01-23T21:24:26.476Z,12.76
2019-01-23T21:27:56.609Z,9.25
2019-01-23T21:31:26.711Z,8.9
2019-01-23T21:34:57.795Z,8.89
2019-01-23T21:38:27.845Z,11.3
2019-01-23T21:41:57.919Z,9.36
2019-01-23T21:45:30.191Z,10.11
2019-01-23T21:49:00.314Z,13.7
2019-01-23T21:52:30.396Z,14.38
2019-01-23T21:56:00.480Z,10.44
2019-01-23T21:59:30.511Z,11.26
2019-01-23T22:00:21.621Z,12.82
2019-01-23T22:03:51.654Z,9.25
2019-01-23T22:07:21.766Z,11.4
2019-01-23T22:10:51.962Z,10.16
2019-01-23T22:14:22.081Z,14.69
2019-01-23T22:17:52.173Z,13.25
2019-01-23T22:21:22.185Z,13.46
2019-01-23T22:24:52.168Z,12.75
2019-01-23T22:28:22.242Z,11.47
2019-01-23T22:31:52.303Z,13.1
2019-01-23T22:35:23.476Z,11.94
2019-01-23T22:38:53.535Z,12.46
2019-01-23T22:42:23.566Z,10.86
2019-01-23T22:45:53.632Z,8.21
2019-01-23T22:49:23.707Z,6.49
2019-01-23T22:52:53.735Z,12.61
2019-01-23T22:56:23.874Z,6.56
2019-01-23T22:59:53.906Z,4.6
2019-01-23T23:03:23.984Z,7.65
2019-01-23T23:06:53.914Z,3.75
2019-01-23T23:10:24.135Z,5.29
2019-01-23T23:13:54.186Z,3.77
2019-01-23T23:17:24.240Z,2.79
2019-01-23T23:20:54.223Z,4.11
2019-01-23T23:24:24.288Z,3.2
2019-01-23T23:27:54.392Z,4.14
2019-01-23T23:31:24.527Z,3.32
2019-01-23T23:34:54.641Z,3
2019-01-23T23:38:25.756Z,2.34
2019-01-23T23:41:55.914Z,3.08
2019-01-23T23:45:26.085Z,2.3
2019-01-23T23:48:56.211Z,2.29
2019-01-23T23:52:26.230Z,2.56
2019-01-23T23:55:56.219Z,2.7
2019-01-23T23:59:26.273Z,2.08
